首页
METAR-TAF:

METAR-TAF

机场 :

比亚里茨, 法国

纬度: 43-28N, 经度: 001-32W, 海拔: 75米

当前天气观测

该预报发布于30分钟前的19:30 UTC
风速4节,风向北转东北,在东转东北之间变化
温度 11°C
湿度 82%
气压 1031 hPa
能见度10公里或以上
1500米以下无云,无积雨云

METAR: LFBZ 211930Z AUTO 02004KT 360V060 CAVOK 11/08 Q1031 NOSIG

时间: 21:00 (20:00 UTC)

预报

该预报发布于3小时和0分钟前的17:00 UTC
预报有效从21日的 18点(UTC)到 22日的 18点(UTC)
风速2节,风向多变
能见度10公里或以上
多云层高于3000英尺
成为
从 21日的 18点(UTC)到 21日的 20点(UTC)
风速6节,风向
能见度10公里或以上
1500米以下无云,无积雨云
几率 40%
从 22日的 02点(UTC)到 22日的 09点(UTC)
能見度: 0500
成为
从 22日的 11点(UTC)到 22日的 13点(UTC)
风速5节,风向西转西北

TAF: LFBZ 211700Z 2118/2218 VRB02KT 9999 BKN030 BECMG 2118/2120 09006KT CAVOK PROB40 2202/2209 0500 FG VV/// BECMG 2211/2213 29005KT

超过4000个机场的气象观测和天气预报(METAR&TAF报告)。

可查询的气象台以黄色和红色小点在地图上表示。

将鼠标移到小点上方,可查看气象台名称。

然后点击查看天气观测和预报。

如需切换地图:点击带黑十字的绿色按钮放大地图;点击带横线的绿色按钮缩小地图;或者点击绿色箭头查看邻近地区的地图。


METAR-TAF: